Time;durP1;ratioP1;P1;durP2;ratioP2;P2;SDS_P1;SDS_P2;PMS_P1;PMS_P2;Temp;Humidity;BMP_temperature;BMP_pressure;BME280_temperature;BME280_humidity;BME280_pressure;Samples;Min_cycle;Max_cycle;Signal;HPM_P1;HPM_P2
2022/09/09 00:00:35;;;;;;;2.13;1.83;;;16.30;99.90;;;;;;5038203;28;20551;-79
2022/09/09 00:03:28;;;;;;;3.00;2.17;;;16.30;99.90;;;;;;5012016;28;20480;-79
2022/09/09 00:06:27;;;;;;;3.30;1.90;;;16.30;99.90;;;;;;5012508;28;20400;-81
2022/09/09 00:09:17;;;;;;;3.20;1.80;;;16.20;99.90;;;;;;5013870;28;20799;-80
2022/09/09 00:12:14;;;;;;;3.37;2.30;;;16.10;99.90;;;;;;5031858;28;20393;-80
2022/09/09 00:15:05;;;;;;;1.90;1.80;;;16.20;99.90;;;;;;5030782;28;20462;-80
2022/09/09 00:17:58;;;;;;;2.43;2.23;;;16.50;99.90;;;;;;5045027;28;20528;-80
2022/09/09 00:20:57;;;;;;;9.30;1.90;;;16.70;99.90;;;;;;5030938;28;20410;-80
2022/09/09 00:23:51;;;;;;;6.23;2.00;;;16.60;99.90;;;;;;4971462;28;20438;-80
2022/09/09 00:26:51;;;;;;;2.10;1.80;;;16.60;99.90;;;;;;4959107;28;20456;-81
2022/09/09 00:29:44;;;;;;;3.70;2.20;;;16.40;99.90;;;;;;4958837;28;20486;-80
2022/09/09 00:32:32;;;;;;;5.20;2.17;;;16.60;99.90;;;;;;4971318;28;20410;-81
2022/09/09 00:35:25;;;;;;;2.47;1.90;;;16.60;99.90;;;;;;4987874;28;20413;-81
2022/09/09 00:38:16;;;;;;;9.00;2.90;;;16.60;99.90;;;;;;4996869;28;20438;-80
2022/09/09 00:41:21;;;;;;;2.20;2.00;;;16.60;99.90;;;;;;5013210;28;20412;-81
2022/09/09 00:44:30;;;;;;;2.47;1.90;;;16.70;99.90;;;;;;5011852;28;20399;-80
2022/09/09 00:47:49;;;;;;;2.90;1.83;;;16.90;99.90;;;;;;5013862;28;20503;-80
2022/09/09 00:50:45;;;;;;;1.90;1.80;;;16.70;99.90;;;;;;5010335;28;20985;-80
2022/09/09 00:54:02;;;;;;;2.43;2.23;;;16.80;99.90;;;;;;5021105;28;20428;-81
2022/09/09 00:57:06;;;;;;;3.27;1.90;;;16.70;99.90;;;;;;5073923;28;20495;-80
2022/09/09 01:00:05;;;;;;;1.67;1.57;;;16.40;99.90;;;;;;5009980;28;20498;-80
2022/09/09 01:03:08;;;;;;;2.53;1.57;;;16.30;99.90;;;;;;4997096;28;20436;-81
2022/09/09 01:06:18;;;;;;;5.87;2.60;;;16.40;99.90;;;;;;5009486;28;20429;-80
2022/09/09 01:09:27;;;;;;;3.10;2.20;;;16.40;99.90;;;;;;4998115;28;20476;-80
2022/09/09 01:12:25;;;;;;;3.17;2.13;;;16.30;99.90;;;;;;5009587;28;20444;-80
2022/09/09 01:15:16;;;;;;;4.63;2.63;;;16.20;99.90;;;;;;4982833;28;20403;-81
2022/09/09 01:18:09;;;;;;;1.93;1.83;;;16.10;99.90;;;;;;5012140;28;20493;-80
2022/09/09 01:21:27;;;;;;;4.03;2.43;;;16.10;99.90;;;;;;5028931;28;20411;-79
2022/09/09 01:24:31;;;;;;;1.73;1.63;;;16.00;99.90;;;;;;5042097;28;20449;-79
2022/09/09 01:27:18;;;;;;;2.00;1.80;;;16.20;99.90;;;;;;5027916;28;20401;-79
2022/09/09 01:30:10;;;;;;;2.30;2.10;;;16.40;99.90;;;;;;5032211;28;20227;-79
2022/09/09 01:33:00;;;;;;;13.53;2.67;;;16.40;99.90;;;;;;5089054;28;20377;-80
2022/09/09 01:36:00;;;;;;;4.50;2.30;;;16.20;99.90;;;;;;5088390;28;20403;-80
2022/09/09 01:38:45;;;;;;;3.13;2.10;;;15.80;99.90;;;;;;5076896;28;20428;-80
2022/09/09 01:41:31;;;;;;;2.20;2.07;;;15.80;99.90;;;;;;5090044;28;20430;-79
2022/09/09 01:44:17;;;;;;;2.30;2.10;;;15.80;99.90;;;;;;5028807;28;20398;-80
2022/09/09 01:47:03;;;;;;;4.70;2.60;;;15.60;99.90;;;;;;5001559;28;20383;-80
2022/09/09 01:49:49;;;;;;;2.53;2.00;;;15.80;99.90;;;;;;4989580;28;20449;-80
2022/09/09 01:52:37;;;;;;;4.90;2.10;;;15.80;99.90;;;;;;4989408;28;20440;-81
2022/09/09 01:55:31;;;;;;;5.23;2.57;;;15.70;99.90;;;;;;4990456;28;20401;-80
2022/09/09 01:58:49;;;;;;;2.40;2.20;;;15.80;99.90;;;;;;4989677;28;20905;-80
2022/09/09 02:02:00;;;;;;;5.93;2.07;;;15.50;99.90;;;;;;5004628;28;20468;-80
2022/09/09 02:04:50;;;;;;;2.40;2.00;;;15.70;99.90;;;;;;5007156;28;20447;-79
2022/09/09 02:07:43;;;;;;;4.60;2.10;;;15.80;99.90;;;;;;4993065;28;20765;-80
2022/09/09 02:10:49;;;;;;;2.30;1.57;;;16.20;99.90;;;;;;4981179;28;20562;-80
2022/09/09 02:13:38;;;;;;;2.50;1.90;;;16.10;99.90;;;;;;4986685;28;20396;-80
2022/09/09 02:16:44;;;;;;;4.10;2.10;;;16.10;99.90;;;;;;5008145;28;20448;-80
2022/09/09 02:19:35;;;;;;;6.30;2.00;;;16.10;99.90;;;;;;5011023;28;20475;-81
2022/09/09 02:22:23;;;;;;;2.43;1.90;;;16.20;99.90;;;;;;5033503;28;20401;-81
2022/09/09 02:25:15;;;;;;;3.33;1.73;;;16.10;99.90;;;;;;5047986;28;20486;-80
2022/09/09 02:28:10;;;;;;;5.37;2.27;;;16.20;99.90;;;;;;5034014;28;20429;-80
2022/09/09 02:31:18;;;;;;;7.07;2.30;;;16.30;99.90;;;;;;5022110;28;20415;-80
2022/09/09 02:34:05;;;;;;;2.90;2.27;;;16.10;99.90;;;;;;4994318;28;20769;-80
2022/09/09 02:36:53;;;;;;;4.80;2.27;;;16.20;99.90;;;;;;4995321;28;20419;-81
2022/09/09 02:39:39;;;;;;;2.60;2.33;;;16.20;99.90;;;;;;5008285;28;20446;-80
2022/09/09 02:42:23;;;;;;;3.07;2.67;;;16.20;99.90;;;;;;4994291;28;20944;-80
2022/09/09 02:45:12;;;;;;;2.03;1.90;;;16.40;99.90;;;;;;4995471;28;20391;-80
2022/09/09 02:48:20;;;;;;;3.70;2.43;;;16.50;99.90;;;;;;4995160;28;20397;-80
2022/09/09 02:51:15;;;;;;;2.63;2.23;;;16.00;99.90;;;;;;4972119;28;20910;-80
2022/09/09 02:54:21;;;;;;;2.97;2.30;;;15.80;99.90;;;;;;4987846;28;20440;-80
2022/09/09 02:57:22;;;;;;;2.30;2.10;;;16.00;99.90;;;;;;4977339;28;20427;-80
2022/09/09 03:00:11;;;;;;;3.77;2.97;;;16.20;99.90;;;;;;4971028;28;20954;-80
2022/09/09 03:02:56;;;;;;;3.93;2.07;;;16.20;99.90;;;;;;4951173;28;20399;-80
2022/09/09 03:05:47;;;;;;;6.07;2.63;;;16.10;99.90;;;;;;4931533;29;20407;-80
2022/09/09 03:09:14;;;;;;;2.80;2.50;;;16.10;99.90;;;;;;4957713;28;20405;-80
2022/09/09 03:12:04;;;;;;;3.10;2.37;;;16.00;99.90;;;;;;4964185;29;20426;-79
2022/09/09 03:15:11;;;;;;;2.37;2.17;;;15.90;99.90;;;;;;4936279;29;20402;-80
2022/09/09 03:18:00;;;;;;;2.23;2.03;;;16.00;99.90;;;;;;4911761;29;20463;-80
2022/09/09 03:20:48;;;;;;;2.73;2.00;;;16.00;99.90;;;;;;4925447;29;20496;-80
2022/09/09 03:23:35;;;;;;;2.00;1.80;;;15.60;99.90;;;;;;4899236;29;20756;-80
2022/09/09 03:26:23;;;;;;;4.30;2.27;;;15.70;99.90;;;;;;4918440;29;20452;-80
2022/09/09 03:29:09;;;;;;;3.07;2.40;;;15.70;99.90;;;;;;4930819;29;20419;-80
2022/09/09 03:31:56;;;;;;;3.17;2.43;;;15.70;99.90;;;;;;4917305;29;20840;-80
2022/09/09 03:34:41;;;;;;;2.43;1.90;;;15.60;99.90;;;;;;4893461;29;20448;-80
2022/09/09 03:37:25;;;;;;;2.10;1.87;;;15.50;99.90;;;;;;4889554;29;20414;-80
2022/09/09 03:40:10;;;;;;;2.63;2.43;;;15.70;99.90;;;;;;4873868;29;20575;-80
2022/09/09 03:42:56;;;;;;;2.37;2.17;;;15.90;99.90;;;;;;4880048;29;20504;-80
2022/09/09 03:45:47;;;;;;;3.27;2.23;;;15.80;99.90;;;;;;4905417;29;20866;-80
2022/09/09 03:48:32;;;;;;;5.40;2.40;;;15.60;99.90;;;;;;4906719;29;20789;-79
2022/09/09 03:51:16;;;;;;;3.83;2.07;;;15.80;99.90;;;;;;4925662;29;20923;-79
2022/09/09 03:54:01;;;;;;;3.60;2.20;;;15.70;99.90;;;;;;4989073;28;20465;-80
2022/09/09 03:56:47;;;;;;;3.20;2.23;;;15.70;99.90;;;;;;5006577;28;20427;-80
2022/09/09 03:59:34;;;;;;;3.97;2.77;;;15.90;99.90;;;;;;5007932;28;20456;-79
2022/09/09 04:02:23;;;;;;;10.00;2.07;;;15.70;99.90;;;;;;5022425;28;20445;-80
2022/09/09 04:05:09;;;;;;;2.27;2.07;;;15.60;99.90;;;;;;5007149;28;20411;-80
2022/09/09 04:07:55;;;;;;;3.00;1.97;;;15.70;99.90;;;;;;4988115;28;20440;-80
2022/09/09 04:10:41;;;;;;;3.73;2.60;;;15.70;99.90;;;;;;4974918;28;20416;-80
2022/09/09 04:13:27;;;;;;;2.53;2.30;;;15.90;99.90;;;;;;4988324;28;20392;-80
2022/09/09 04:16:19;;;;;;;3.57;2.47;;;15.90;99.90;;;;;;4974384;28;20429;-80
2022/09/09 04:19:07;;;;;;;3.00;2.23;;;15.90;99.90;;;;;;5007716;28;20482;-79
2022/09/09 04:21:52;;;;;;;3.57;2.27;;;16.10;99.90;;;;;;4989229;28;20449;-80
2022/09/09 04:24:37;;;;;;;3.10;2.30;;;16.20;99.90;;;;;;4968173;28;20433;-80
2022/09/09 04:27:22;;;;;;;5.57;2.20;;;16.10;99.90;;;;;;5015931;28;20450;-79
2022/09/09 04:30:07;;;;;;;3.20;2.20;;;16.10;99.90;;;;;;5012916;28;20471;-80
2022/09/09 04:32:51;;;;;;;2.53;2.43;;;16.00;99.90;;;;;;5025510;28;20445;-80
2022/09/09 04:35:38;;;;;;;2.80;2.50;;;16.00;99.90;;;;;;5011569;28;20791;-80
2022/09/09 04:38:44;;;;;;;6.70;2.60;;;16.10;99.90;;;;;;5038781;28;21045;-79
2022/09/09 04:41:52;;;;;;;2.73;2.53;;;16.20;99.90;;;;;;5013121;28;20421;-79
2022/09/09 04:44:37;;;;;;;5.53;2.10;;;16.10;99.90;;;;;;4962750;28;20430;-80
2022/09/09 04:47:22;;;;;;;1.93;1.83;;;15.90;99.90;;;;;;4965011;28;20414;-80
2022/09/09 04:50:08;;;;;;;3.23;2.57;;;15.70;99.90;;;;;;4950942;29;20491;-79
2022/09/09 04:52:55;;;;;;;4.00;2.37;;;15.90;99.90;;;;;;4975488;28;20798;-79
2022/09/09 04:55:43;;;;;;;5.47;2.73;;;16.00;99.90;;;;;;4990036;28;20578;-80
2022/09/09 04:58:28;;;;;;;3.20;2.87;;;16.10;99.90;;;;;;4983636;28;20459;-80
2022/09/09 05:01:17;;;;;;;2.50;2.30;;;16.20;99.90;;;;;;5009996;28;20479;-80
2022/09/09 05:04:03;;;;;;;3.07;2.77;;;16.30;99.90;;;;;;4988552;28;20416;-79
2022/09/09 05:06:51;;;;;;;5.40;3.03;;;16.40;99.90;;;;;;4988983;28;20466;-79
2022/09/09 05:09:35;;;;;;;5.33;2.30;;;16.40;99.90;;;;;;4985712;28;20444;-80
2022/09/09 05:12:25;;;;;;;2.70;2.37;;;16.40;99.90;;;;;;4996948;28;20948;-80
2022/09/09 05:15:12;;;;;;;3.77;2.03;;;16.30;99.90;;;;;;4964903;29;20467;-81
2022/09/09 05:18:00;;;;;;;4.53;2.33;;;16.40;99.90;;;;;;4984296;28;20493;-80
2022/09/09 05:20:45;;;;;;;2.47;2.27;;;16.40;99.90;;;;;;4979659;28;20495;-79
2022/09/09 05:23:30;;;;;;;2.83;2.23;;;16.60;99.90;;;;;;5063826;28;20453;-79
2022/09/09 05:26:17;;;;;;;2.30;2.10;;;16.50;99.90;;;;;;5035393;28;20409;-80
2022/09/09 05:29:02;;;;;;;4.07;3.30;;;16.60;99.90;;;;;;5035025;28;20401;-81
2022/09/09 05:31:47;;;;;;;2.87;2.37;;;16.60;99.90;;;;;;4964240;28;20553;-80
2022/09/09 05:34:31;;;;;;;4.47;3.93;;;16.70;99.90;;;;;;4931054;29;20407;-81
2022/09/09 05:37:16;;;;;;;6.83;2.77;;;16.80;99.90;;;;;;4959120;29;20422;-80
2022/09/09 05:40:01;;;;;;;2.90;2.70;;;16.80;99.90;;;;;;4948848;28;20495;-81
2022/09/09 05:42:47;;;;;;;6.53;2.60;;;16.70;99.90;;;;;;4930224;29;20427;-81
2022/09/09 05:45:32;;;;;;;3.70;2.40;;;16.70;99.90;;;;;;4931420;28;20463;-81
2022/09/09 05:48:19;;;;;;;2.60;2.10;;;16.60;99.90;;;;;;4943434;29;20914;-80
2022/09/09 05:51:06;;;;;;;2.83;2.20;;;16.80;99.90;;;;;;4930512;28;20442;-80
2022/09/09 05:53:56;;;;;;;4.90;2.70;;;16.80;99.90;;;;;;4931403;29;20580;-80
2022/09/09 05:56:44;;;;;;;2.17;2.07;;;16.60;99.90;;;;;;4928671;29;20611;-80
2022/09/09 05:59:29;;;;;;;2.83;2.30;;;16.60;99.90;;;;;;4942613;29;20768;-80
2022/09/09 06:02:14;;;;;;;4.90;3.23;;;16.60;99.90;;;;;;4920543;28;20450;-80
2022/09/09 06:04:58;;;;;;;2.83;2.63;;;16.70;99.90;;;;;;5006565;28;20447;-80
2022/09/09 06:07:44;;;;;;;2.93;2.70;;;16.70;99.90;;;;;;5002406;28;20936;-79
2022/09/09 06:10:30;;;;;;;5.10;2.57;;;16.70;99.90;;;;;;5041242;28;20507;-80
2022/09/09 06:13:16;;;;;;;2.40;2.20;;;16.70;99.90;;;;;;5063677;28;20887;-80
2022/09/09 06:16:43;;;;;;;3.40;2.70;;;16.60;99.90;;;;;;5050629;28;20504;-80
2022/09/09 06:19:28;;;;;;;8.33;2.20;;;16.80;99.90;;;;;;5011349;28;20503;-80
2022/09/09 06:22:13;;;;;;;2.43;2.23;;;16.60;99.90;;;;;;4999694;28;20468;-80
2022/09/09 06:25:00;;;;;;;4.00;2.53;;;16.70;99.90;;;;;;5002371;28;20471;-81
2022/09/09 06:27:52;;;;;;;2.40;2.20;;;16.90;99.90;;;;;;4988451;28;20469;-80
2022/09/09 06:30:37;;;;;;;1.80;1.67;;;16.90;99.90;;;;;;4974930;28;21051;-80
2022/09/09 06:33:23;;;;;;;3.83;2.53;;;17.00;99.90;;;;;;4994238;28;20833;-80
2022/09/09 06:36:12;;;;;;;9.23;2.83;;;17.20;99.90;;;;;;4983676;28;20451;-79
2022/09/09 06:38:58;;;;;;;2.37;2.17;;;16.90;99.90;;;;;;4976914;28;20508;-79
2022/09/09 06:41:42;;;;;;;5.10;2.73;;;17.00;99.90;;;;;;4980314;28;20787;-80
2022/09/09 06:44:27;;;;;;;3.73;2.27;;;17.20;99.90;;;;;;4971899;28;20595;-79
2022/09/09 06:47:11;;;;;;;2.33;2.13;;;17.20;99.90;;;;;;5000765;28;20499;-78
2022/09/09 06:49:56;;;;;;;2.50;2.30;;;17.00;99.90;;;;;;4972492;28;20827;-79
2022/09/09 06:52:41;;;;;;;1.83;1.73;;;17.10;99.90;;;;;;4995247;28;20436;-77
2022/09/09 06:55:27;;;;;;;9.20;2.60;;;17.10;99.90;;;;;;4935036;29;20430;-78
2022/09/09 06:58:12;;;;;;;3.83;2.40;;;17.30;99.90;;;;;;4942551;29;20485;-77
2022/09/09 07:01:27;;;;;;;3.77;2.70;;;17.30;99.90;;;;;;4968570;28;20510;-78
2022/09/09 07:04:13;;;;;;;4.10;1.97;;;17.20;99.90;;;;;;4988723;28;20444;-80
2022/09/09 07:07:20;;;;;;;2.50;2.30;;;17.20;99.90;;;;;;4963669;28;20441;-81
2022/09/09 07:10:26;;;;;;;2.53;2.17;;;17.30;99.90;;;;;;4967842;28;20449;-79
2022/09/09 07:13:15;;;;;;;3.07;2.57;;;17.60;99.90;;;;;;4941722;29;20445;-80
2022/09/09 07:16:09;;;;;;;4.27;2.30;;;17.90;99.90;;;;;;4936537;29;21599;-79
2022/09/09 07:18:58;;;;;;;3.77;1.73;;;17.90;99.90;;;;;;4914674;29;20511;-79
2022/09/09 07:21:43;;;;;;;3.00;2.30;;;17.90;99.90;;;;;;4926485;29;20454;-81
2022/09/09 07:24:30;;;;;;;2.20;2.00;;;17.90;99.90;;;;;;4925031;29;20539;-79
2022/09/09 07:27:15;;;;;;;2.27;2.07;;;18.00;99.90;;;;;;4927097;29;20927;-79
2022/09/09 07:30:21;;;;;;;5.53;2.10;;;18.30;99.90;;;;;;4923752;29;20536;-80
2022/09/09 07:33:07;;;;;;;4.70;3.30;;;18.60;99.90;;;;;;4921257;29;20447;-79
2022/09/09 07:36:02;;;;;;;4.23;2.30;;;18.50;99.90;;;;;;4921070;29;20585;-81
2022/09/09 07:38:54;;;;;;;4.23;2.27;;;18.40;99.90;;;;;;4910608;29;20499;-80
2022/09/09 07:41:45;;;;;;;4.90;3.70;;;18.70;99.90;;;;;;4929484;29;20466;-80
2022/09/09 07:44:29;;;;;;;5.43;2.37;;;18.80;99.90;;;;;;4940796;28;20450;-81
2022/09/09 07:47:14;;;;;;;1.90;1.80;;;18.80;99.90;;;;;;4921678;28;20440;-81
2022/09/09 07:50:04;;;;;;;2.50;1.87;;;18.70;99.90;;;;;;4970444;28;20435;-80
2022/09/09 07:52:50;;;;;;;2.23;2.00;;;18.80;99.90;;;;;;4962438;28;20494;-80
2022/09/09 07:55:44;;;;;;;4.43;2.23;;;19.10;99.90;;;;;;4964038;28;20464;-80
2022/09/09 07:58:28;;;;;;;7.80;2.53;;;18.90;99.90;;;;;;4977917;28;20483;-81
2022/09/09 08:01:17;;;;;;;2.00;1.80;;;18.90;99.90;;;;;;4986111;28;20468;-81
2022/09/09 08:04:10;;;;;;;3.83;2.03;;;19.10;99.90;;;;;;4991827;28;20923;-80
2022/09/09 08:06:59;;;;;;;1.77;1.67;;;19.30;99.90;;;;;;4982131;28;20435;-80
2022/09/09 08:09:44;;;;;;;1.70;1.60;;;19.10;99.90;;;;;;4995050;28;20444;-80
2022/09/09 08:12:30;;;;;;;2.70;1.60;;;19.30;99.90;;;;;;5001381;28;20862;-81
2022/09/09 08:15:17;;;;;;;3.73;1.93;;;19.10;99.90;;;;;;5054576;28;20993;-80
2022/09/09 08:18:04;;;;;;;1.70;1.60;;;19.30;99.90;;;;;;5076842;28;20537;-80
2022/09/09 08:20:50;;;;;;;1.70;1.60;;;19.20;99.90;;;;;;5085066;28;20447;-80
2022/09/09 08:23:41;;;;;;;6.57;1.97;;;19.20;99.90;;;;;;5088459;28;20486;-81
2022/09/09 08:26:31;;;;;;;7.13;2.07;;;19.20;99.90;;;;;;5091878;28;20442;-80
2022/09/09 08:29:39;;;;;;;2.00;1.50;;;19.40;99.90;;;;;;5013762;28;20444;-80
2022/09/09 08:32:24;;;;;;;2.80;1.50;;;19.40;99.90;;;;;;4989054;28;20466;-80
2022/09/09 08:35:09;;;;;;;1.40;1.30;;;19.40;99.90;;;;;;5003423;28;20446;-79
2022/09/09 08:37:55;;;;;;;1.40;1.30;;;19.50;99.90;;;;;;5006579;28;20538;-80
2022/09/09 08:40:43;;;;;;;1.60;1.47;;;19.90;99.90;;;;;;4995380;28;20456;-80
2022/09/09 08:43:34;;;;;;;2.43;1.70;;;19.80;99.90;;;;;;4991781;28;20740;-80
2022/09/09 08:46:37;;;;;;;2.27;1.60;;;19.40;99.90;;;;;;5005028;28;20456;-81
2022/09/09 08:49:59;;;;;;;3.37;2.13;;;19.40;99.90;;;;;;4989959;28;20607;-81
2022/09/09 08:53:13;;;;;;;2.67;1.30;;;19.40;99.90;;;;;;4988705;28;20433;-81
2022/09/09 08:56:01;;;;;;;6.93;2.50;;;19.40;99.90;;;;;;5001677;28;20507;-81
2022/09/09 08:58:50;;;;;;;2.23;1.53;;;19.90;99.90;;;;;;4991015;28;20463;-80
2022/09/09 09:02:11;;;;;;;1.57;1.47;;;20.20;99.90;;;;;;5042098;28;20438;-80
2022/09/09 09:05:23;;;;;;;2.13;1.90;;;20.40;99.90;;;;;;5005589;28;20463;-80
2022/09/09 09:08:28;;;;;;;2.13;1.93;;;20.30;99.90;;;;;;4986245;28;20468;-80
2022/09/09 09:11:14;;;;;;;3.40;1.50;;;20.60;99.90;;;;;;4994283;28;20459;-80
2022/09/09 09:14:07;;;;;;;1.70;1.43;;;20.70;99.90;;;;;;5021078;28;20438;-80
2022/09/09 09:17:05;;;;;;;2.50;1.20;;;21.10;99.90;;;;;;5014845;28;20592;-79
2022/09/09 09:19:54;;;;;;;4.33;1.53;;;21.00;99.90;;;;;;4996494;28;20514;-80
2022/09/09 09:22:51;;;;;;;1.73;1.30;;;21.10;99.90;;;;;;4992729;28;20423;-80
2022/09/09 09:25:44;;;;;;;1.60;1.50;;;21.10;99.90;;;;;;4977986;28;20449;-79
2022/09/09 09:28:32;;;;;;;3.37;1.37;;;20.70;99.90;;;;;;4989128;28;20470;-80
2022/09/09 09:31:20;;;;;;;5.80;2.03;;;20.60;99.90;;;;;;4998254;28;20455;-80
2022/09/09 09:34:05;;;;;;;6.30;1.60;;;20.60;99.90;;;;;;5008577;28;20440;-80
2022/09/09 09:36:56;;;;;;;1.50;1.40;;;20.60;99.90;;;;;;4994239;28;20468;-78
2022/09/09 09:39:44;;;;;;;3.73;2.33;;;20.80;99.90;;;;;;4968597;28;20492;-80
2022/09/09 09:42:30;;;;;;;9.57;1.73;;;21.00;99.90;;;;;;4970535;28;20484;-81
2022/09/09 09:45:44;;;;;;;3.00;1.97;;;20.90;99.90;;;;;;4964183;28;20470;-81
2022/09/09 09:48:32;;;;;;;6.50;2.67;;;20.90;99.90;;;;;;4994951;28;20549;-80
2022/09/09 09:51:19;;;;;;;2.87;1.43;;;20.90;99.90;;;;;;4986614;28;20435;-80
2022/09/09 09:54:27;;;;;;;1.80;1.50;;;21.50;99.90;;;;;;4974846;28;20507;-79
2022/09/09 09:57:15;;;;;;;10.10;2.10;;;22.00;99.90;;;;;;5002626;28;20510;-81
2022/09/09 10:00:17;;;;;;;1.60;1.50;;;21.90;99.90;;;;;;5014157;28;21858;-80
2022/09/09 10:03:24;;;;;;;2.60;2.00;;;21.70;99.90;;;;;;4978568;28;20511;-80
2022/09/09 10:06:13;;;;;;;2.20;1.83;;;22.30;99.90;;;;;;4965384;28;20443;-80
2022/09/09 10:09:01;;;;;;;6.07;2.07;;;21.70;99.90;;;;;;5021649;28;20429;-81
2022/09/09 10:12:19;;;;;;;2.40;1.50;;;21.80;99.90;;;;;;4985581;28;20452;-79
2022/09/09 10:15:20;;;;;;;1.30;1.20;;;21.70;99.90;;;;;;4981174;28;20480;-81
2022/09/09 10:18:39;;;;;;;2.43;1.63;;;22.30;99.90;;;;;;4995100;28;20526;-80
2022/09/09 10:21:55;;;;;;;3.97;1.70;;;22.00;99.90;;;;;;5019987;28;20518;-79
2022/09/09 10:25:07;;;;;;;3.90;1.50;;;22.60;99.90;;;;;;4994104;28;20446;-79
2022/09/09 10:28:30;;;;;;;1.80;1.40;;;23.20;99.90;;;;;;4988337;28;20494;-81
2022/09/09 10:31:41;;;;;;;1.20;1.10;;;22.90;99.90;;;;;;4984951;28;20435;-81
2022/09/09 10:34:54;;;;;;;3.40;1.40;;;22.50;99.90;;;;;;4994647;28;20461;-81
2022/09/09 10:38:19;;;;;;;2.43;1.30;;;22.30;99.90;;;;;;5037461;28;20492;-80
2022/09/09 10:41:16;;;;;;;8.30;1.50;;;22.80;99.90;;;;;;5032950;28;20533;-80
2022/09/09 10:44:39;;;;;;;4.43;1.70;;;22.80;99.90;;;;;;5025328;28;21063;-80
2022/09/09 10:47:49;;;;;;;13.30;1.70;;;23.30;99.90;;;;;;5015757;28;20474;-79
2022/09/09 10:50:49;;;;;;;1.87;1.67;;;24.10;99.90;;;;;;5001338;28;20477;-77
2022/09/09 10:53:59;;;;;;;3.83;1.40;;;24.20;99.90;;;;;;5016613;28;20552;-80
2022/09/09 10:56:56;;;;;;;1.87;1.20;;;24.10;99.90;;;;;;5005512;28;20463;-77
2022/09/09 10:59:48;;;;;;;2.10;1.90;;;23.90;99.90;;;;;;5008493;28;20478;-81
2022/09/09 11:02:34;;;;;;;1.30;1.10;;;23.70;99.90;;;;;;5003445;28;20427;-79
2022/09/09 11:05:34;;;;;;;1.43;1.10;;;24.50;99.90;;;;;;5032311;28;20510;-80
2022/09/09 11:08:28;;;;;;;2.60;1.30;;;24.80;99.90;;;;;;4945619;28;20435;-79
2022/09/09 11:11:26;;;;;;;2.87;1.37;;;25.40;99.90;;;;;;4957355;28;20847;-79
2022/09/09 11:14:26;;;;;;;2.20;1.17;;;25.00;99.90;;;;;;4969003;28;20433;-77
2022/09/09 11:17:19;;;;;;;2.53;1.37;;;24.50;99.90;;;;;;4981414;28;20469;-81
2022/09/09 11:20:25;;;;;;;3.53;1.63;;;24.90;99.90;;;;;;5008709;28;20478;-80
2022/09/09 11:23:19;;;;;;;1.50;1.30;;;26.10;99.90;;;;;;4959334;28;20477;-78
2022/09/09 11:26:18;;;;;;;2.07;1.20;;;26.90;99.50;;;;;;4940161;29;20467;-80
2022/09/09 11:29:34;;;;;;;5.90;1.73;;;26.10;96.60;;;;;;4937356;29;20450;-79
2022/09/09 11:32:52;;;;;;;6.20;1.43;;;27.10;95.50;;;;;;4935871;29;20442;-79
2022/09/09 11:35:57;;;;;;;2.30;1.93;;;27.60;94.00;;;;;;4938249;29;20945;-81
2022/09/09 11:38:47;;;;;;;2.90;1.40;;;28.90;90.40;;;;;;4937962;28;20477;-81
2022/09/09 11:41:37;;;;;;;4.78;1.65;;;29.70;84.70;;;;;;4955272;28;20482;-82
2022/09/09 11:44:30;;;;;;;2.95;2.30;;;30.20;83.60;;;;;;4961462;28;20337;-82
2022/09/09 11:47:31;;;;;;;4.00;1.73;;;30.20;81.10;;;;;;4956659;28;20257;-82
2022/09/09 11:50:35;;;;;;;2.20;1.92;;;30.40;77.50;;;;;;4954163;28;20185;-80
2022/09/09 11:53:22;;;;;;;2.40;1.30;;;30.40;72.80;;;;;;4980341;28;20283;-82
2022/09/09 11:56:13;;;;;;;1.58;1.30;;;28.90;72.90;;;;;;5012404;28;20269;-81
2022/09/09 11:59:02;;;;;;;1.50;1.40;;;28.20;73.50;;;;;;5007277;28;20246;-83
2022/09/09 12:01:56;;;;;;;1.50;1.20;;;27.20;74.10;;;;;;5009799;28;20196;-82
2022/09/09 12:05:05;;;;;;;2.60;1.20;;;26.60;78.90;;;;;;5013493;28;20437;-82
2022/09/09 12:07:58;;;;;;;4.10;2.27;;;26.00;83.70;;;;;;5012599;28;20584;-82
2022/09/09 12:10:54;;;;;;;2.70;1.47;;;25.50;88.10;;;;;;5058184;28;20419;-86
2022/09/09 12:13:38;;;;;;;3.30;1.40;;;25.30;90.20;;;;;;5059207;28;20958;-84
2022/09/09 12:16:33;;;;;;;1.30;1.10;;;25.20;84.90;;;;;;5069086;28;20458;-81
2022/09/09 12:19:21;;;;;;;2.67;1.20;;;25.70;83.30;;;;;;5078152;28;20588;-84
2022/09/09 12:22:32;;;;;;;1.88;1.17;;;26.60;82.00;;;;;;5078399;28;20511;-82
2022/09/09 12:25:47;;;;;;;1.80;1.47;;;26.00;79.30;;;;;;5076453;28;20197;-83
2022/09/09 12:29:04;;;;;;;1.20;1.10;;;24.90;79.70;;;;;;5087881;28;20455;-81
2022/09/09 12:32:06;;;;;;;1.00;0.90;;;24.30;80.80;;;;;;5085284;28;20419;-83
2022/09/09 12:34:56;;;;;;;1.20;1.10;;;23.50;85.10;;;;;;5072757;28;20439;-82
2022/09/09 12:37:53;;;;;;;1.50;1.03;;;22.80;85.10;;;;;;5083937;28;20444;-82
2022/09/09 12:40:39;;;;;;;3.73;1.00;;;22.30;88.50;;;;;;5087505;28;20506;-83
2022/09/09 12:43:26;;;;;;;1.37;1.10;;;22.00;89.50;;;;;;5060500;28;20936;-82
2022/09/09 12:46:21;;;;;;;1.33;1.10;;;21.60;90.80;;;;;;5078060;28;20431;-83
2022/09/09 12:49:20;;;;;;;1.33;1.13;;;21.80;90.40;;;;;;5084198;28;20579;-83
2022/09/09 12:52:16;;;;;;;1.47;1.00;;;22.00;91.20;;;;;;5080203;28;20435;-81
2022/09/09 12:55:03;;;;;;;1.93;0.97;;;23.30;91.20;;;;;;5061213;28;20497;-80
2022/09/09 12:57:50;;;;;;;1.77;1.23;;;23.80;90.90;;;;;;5087329;28;20498;-82
2022/09/09 13:00:34;;;;;;;1.00;0.90;;;23.80;90.10;;;;;;5075241;28;20487;-81
2022/09/09 13:03:21;;;;;;;1.27;1.17;;;23.50;90.50;;;;;;5085058;28;20535;-82
2022/09/09 13:06:20;;;;;;;1.10;1.00;;;23.10;91.70;;;;;;5073305;28;20570;-81
2022/09/09 13:09:04;;;;;;;1.40;1.00;;;22.80;90.60;;;;;;5095235;28;20431;-83
2022/09/09 13:11:54;;;;;;;2.50;1.20;;;22.60;92.00;;;;;;5080058;28;20948;-83
2022/09/09 13:14:43;;;;;;;1.20;0.90;;;22.60;92.10;;;;;;5089416;28;20880;-82
2022/09/09 13:17:28;;;;;;;5.83;2.73;;;22.60;91.90;;;;;;5095655;28;20518;-83
2022/09/09 13:20:18;;;;;;;1.73;1.00;;;22.70;91.50;;;;;;5086353;28;20491;-82
2022/09/09 13:23:02;;;;;;;1.20;1.10;;;23.20;91.50;;;;;;5098372;28;20526;-82
2022/09/09 13:26:03;;;;;;;1.73;1.23;;;24.60;90.00;;;;;;5086848;28;20432;-82
2022/09/09 13:28:49;;;;;;;1.10;1.00;;;25.80;84.30;;;;;;5072436;28;20934;-81
2022/09/09 13:31:36;;;;;;;1.40;1.10;;;26.60;86.20;;;;;;5087457;28;20470;-82
2022/09/09 13:34:30;;;;;;;1.70;1.60;;;27.60;76.70;;;;;;5074363;28;20445;-83
2022/09/09 13:37:27;;;;;;;1.73;1.17;;;28.70;72.70;;;;;;5083010;28;20477;-82
2022/09/09 13:40:19;;;;;;;1.10;1.00;;;28.10;70.70;;;;;;5088548;28;20501;-83
2022/09/09 13:43:05;;;;;;;1.50;1.40;;;27.90;69.80;;;;;;5074085;28;20446;-83
2022/09/09 13:45:56;;;;;;;3.00;1.30;;;27.60;69.40;;;;;;5086354;28;20518;-83
2022/09/09 13:48:40;;;;;;;2.80;1.10;;;28.60;68.10;;;;;;5067296;28;20184;-83
2022/09/09 13:51:46;;;;;;;2.42;1.20;;;28.70;67.90;;;;;;5082470;28;20646;-83
2022/09/09 13:54:31;;;;;;;2.10;1.20;;;26.60;69.60;;;;;;5074006;28;20189;-84
2022/09/09 13:57:19;;;;;;;3.63;1.53;;;25.90;73.90;;;;;;5089023;28;20489;-82
2022/09/09 14:00:03;;;;;;;1.57;1.00;;;25.80;75.10;;;;;;5089197;28;20539;-82
2022/09/09 14:02:48;;;;;;;1.73;1.10;;;25.00;75.40;;;;;;5088941;28;20439;-82
2022/09/09 14:05:34;;;;;;;2.80;1.43;;;25.10;76.70;;;;;;5079685;28;20423;-81
2022/09/09 14:08:24;;;;;;;1.50;1.10;;;26.30;75.30;;;;;;5085298;28;20443;-83
2022/09/09 14:11:14;;;;;;;1.30;1.20;;;25.70;74.20;;;;;;5096853;28;20416;-81
2022/09/09 14:14:00;;;;;;;2.13;1.40;;;25.10;77.20;;;;;;5083214;28;20444;-83
2022/09/09 14:16:45;;;;;;;1.10;1.00;;;25.90;77.30;;;;;;5062803;28;20472;-83
2022/09/09 14:19:30;;;;;;;1.30;1.20;;;27.50;69.80;;;;;;5069712;28;20551;-82
2022/09/09 14:22:15;;;;;;;2.33;1.40;;;28.70;65.20;;;;;;5064312;28;20436;-82
2022/09/09 14:25:00;;;;;;;1.87;1.30;;;26.60;67.80;;;;;;5053792;28;20984;-83
2022/09/09 14:28:09;;;;;;;2.20;1.27;;;25.60;73.70;;;;;;5074358;28;20436;-80
2022/09/09 14:30:55;;;;;;;1.63;1.20;;;24.80;77.30;;;;;;5030634;28;20797;-81
2022/09/09 14:33:41;;;;;;;1.97;1.20;;;24.20;80.50;;;;;;5048500;28;20538;-80
2022/09/09 14:36:26;;;;;;;4.50;1.73;;;23.80;82.70;;;;;;5002490;28;20463;-82
2022/09/09 14:39:12;;;;;;;2.93;1.60;;;23.90;84.80;;;;;;5001394;28;20514;-79
2022/09/09 14:41:59;;;;;;;2.17;1.73;;;24.20;83.80;;;;;;5014227;28;20448;-80
2022/09/09 14:44:44;;;;;;;3.13;1.63;;;24.50;88.30;;;;;;4988038;28;20464;-80
2022/09/09 14:47:32;;;;;;;1.77;1.27;;;24.20;89.70;;;;;;4999014;28;20443;-81
2022/09/09 14:50:20;;;;;;;1.43;1.30;;;24.40;90.20;;;;;;5011027;28;20446;-81
2022/09/09 14:53:09;;;;;;;1.30;1.20;;;24.10;90.90;;;;;;4994662;28;20489;-81
2022/09/09 14:56:09;;;;;;;1.70;1.20;;;23.90;90.80;;;;;;4985562;28;20493;-80
2022/09/09 14:59:07;;;;;;;1.87;1.50;;;23.80;92.60;;;;;;5013810;28;20495;-77